Franklin, Ohio
Current Conditions -  °F | °C
As of 6:53 AM on Friday 21 Nov 2014 (Local Time) from KMGY Reporting Station
Clear Clear  
Wind Chill: 13°   Ceiling: Unl
Heat Index: 13°   Visibility: 10mi
Dew Point:   Wind: 0mph
Humidity: 74%   Direction: NA
Pressure: 30.41"   Gusts: NA
Location:  39.54°N, 84.29°W
Report Text: KMGY 211153Z AUTO 00000KT 10SM CLR M11/M14 A3041 RMK AO2 SLP312 T11061144 11061 21106 52024
Loading
Personal Weather Stations






























Interactive Weather Map New forecast layout! Learn more

10-Day Weather Forecast

Advertisements
Track Severe Weather on mobile